Time;durP1;ratioP1;P1;durP2;ratioP2;P2;SDS_P1;SDS_P2;PMS_P1;PMS_P2;Temp;Humidity;BMP_temperature;BMP_pressure;BME280_temperature;BME280_humidity;BME280_pressure;Samples;Min_cycle;Max_cycle;Signal;HPM_P1;HPM_P2
2023/11/30 00:00:11;;;;;;;4.35;3.00;;;3.40;99.90;;;;;;5034678;28;20061;-73
2023/11/30 00:02:37;;;;;;;4.35;3.15;;;3.40;99.90;;;;;;5035783;28;20485;-73
2023/11/30 00:05:06;;;;;;;4.55;2.63;;;3.40;99.90;;;;;;5032380;28;20048;-73
2023/11/30 00:07:33;;;;;;;3.05;2.40;;;3.40;99.90;;;;;;5036371;28;20032;-73
2023/11/30 00:09:58;;;;;;;3.67;2.28;;;3.40;99.90;;;;;;5035295;28;20032;-73
2023/11/30 00:12:24;;;;;;;5.50;3.15;;;3.40;99.90;;;;;;5027519;28;20044;-73
2023/11/30 00:14:50;;;;;;;3.03;2.05;;;3.50;99.90;;;;;;5052897;28;20036;-74
2023/11/30 00:17:15;;;;;;;3.42;2.63;;;3.40;99.90;;;;;;5052044;28;20104;-73
2023/11/30 00:19:41;;;;;;;9.55;5.03;;;3.30;99.90;;;;;;5031751;28;20444;-73
2023/11/30 00:22:07;;;;;;;5.20;2.88;;;3.30;99.90;;;;;;5033323;28;20025;-73
2023/11/30 00:24:33;;;;;;;1.55;1.42;;;3.20;99.90;;;;;;5034528;28;20025;-73
2023/11/30 00:26:58;;;;;;;7.53;2.95;;;3.20;99.90;;;;;;5035285;28;20547;-73
2023/11/30 00:29:24;;;;;;;3.95;2.10;;;3.20;99.90;;;;;;5051413;28;20025;-73
2023/11/30 00:31:50;;;;;;;3.92;2.50;;;3.20;99.90;;;;;;5034879;28;20025;-73
2023/11/30 00:34:16;;;;;;;2.40;2.08;;;3.20;99.90;;;;;;5052965;28;20029;-73
2023/11/30 00:36:41;;;;;;;4.28;2.63;;;3.20;99.90;;;;;;5047118;28;20499;-73
2023/11/30 00:39:08;;;;;;;4.65;2.88;;;3.20;99.90;;;;;;5052779;28;20499;-73
2023/11/30 00:41:34;;;;;;;7.60;2.55;;;3.20;99.90;;;;;;5052077;28;20044;-73
2023/11/30 00:43:59;;;;;;;2.88;2.60;;;3.20;99.90;;;;;;5035921;28;20037;-73
2023/11/30 00:46:25;;;;;;;4.97;3.42;;;3.30;99.90;;;;;;5018053;28;20037;-73
2023/11/30 00:48:51;;;;;;;4.72;2.53;;;3.20;99.90;;;;;;5052497;28;20531;-73
2023/11/30 00:51:17;;;;;;;2.97;2.03;;;3.20;99.90;;;;;;5051651;28;20056;-73
2023/11/30 00:53:43;;;;;;;2.92;2.53;;;3.20;99.90;;;;;;5053093;28;20145;-73
2023/11/30 00:56:11;;;;;;;4.35;2.55;;;3.20;99.90;;;;;;5033838;28;20599;-73
2023/11/30 00:58:37;;;;;;;5.40;4.15;;;3.20;99.90;;;;;;5041002;28;20041;-73
2023/11/30 01:01:03;;;;;;;5.78;3.72;;;3.20;99.90;;;;;;5034022;28;20044;-73
2023/11/30 01:03:29;;;;;;;3.13;2.50;;;3.20;99.90;;;;;;5018307;28;20037;-73
2023/11/30 01:05:54;;;;;;;4.63;3.30;;;3.20;99.90;;;;;;5047074;28;20590;-73
2023/11/30 01:08:20;;;;;;;5.93;3.05;;;3.20;99.90;;;;;;5042394;28;20465;-73
2023/11/30 01:10:46;;;;;;;4.93;2.22;;;3.20;99.90;;;;;;5046893;28;20029;-73
2023/11/30 01:13:12;;;;;;;4.22;2.80;;;3.20;99.90;;;;;;5034547;28;20481;-73
2023/11/30 01:15:38;;;;;;;2.90;1.75;;;3.20;99.90;;;;;;5047304;28;20202;-73
2023/11/30 01:18:03;;;;;;;4.45;2.85;;;3.20;99.90;;;;;;5034033;28;20060;-74
2023/11/30 01:20:31;;;;;;;1.42;1.27;;;3.20;99.90;;;;;;5051123;28;20071;-73
2023/11/30 01:22:57;;;;;;;1.67;1.25;;;3.20;99.90;;;;;;5034246;28;20036;-73
2023/11/30 01:25:23;;;;;;;5.43;3.63;;;3.20;99.90;;;;;;5046813;28;20029;-73
2023/11/30 01:27:50;;;;;;;1.85;1.27;;;3.20;99.90;;;;;;5034229;28;20029;-73
2023/11/30 01:30:16;;;;;;;2.45;1.77;;;3.20;99.90;;;;;;5050424;28;20147;-73
2023/11/30 01:32:42;;;;;;;2.17;2.03;;;3.20;99.90;;;;;;5034104;28;20377;-73
2023/11/30 01:35:08;;;;;;;2.92;1.98;;;3.20;99.90;;;;;;5046268;28;20056;-73
2023/11/30 01:37:34;;;;;;;3.20;2.38;;;3.20;99.90;;;;;;5034296;28;20502;-73
2023/11/30 01:40:00;;;;;;;4.22;1.90;;;3.20;99.90;;;;;;5033425;28;20128;-73
2023/11/30 01:42:25;;;;;;;5.30;2.53;;;3.20;99.90;;;;;;5026118;28;20029;-73
2023/11/30 01:44:51;;;;;;;1.65;1.08;;;3.20;99.90;;;;;;5050548;28;20032;-73
2023/11/30 01:47:17;;;;;;;2.85;1.23;;;3.10;99.90;;;;;;5033394;28;20100;-73
2023/11/30 01:49:43;;;;;;;1.92;0.65;;;3.10;99.90;;;;;;5015554;28;20039;-74
2023/11/30 01:52:09;;;;;;;1.98;1.45;;;3.10;99.90;;;;;;5033376;28;20028;-73
2023/11/30 01:54:36;;;;;;;2.40;2.00;;;3.10;99.90;;;;;;5032851;28;20775;-73
2023/11/30 01:57:03;;;;;;;8.30;1.95;;;3.10;99.90;;;;;;5033506;28;20086;-73
2023/11/30 01:59:29;;;;;;;2.35;2.10;;;3.10;99.90;;;;;;5031970;28;20095;-73
2023/11/30 02:01:55;;;;;;;5.32;2.08;;;3.10;99.90;;;;;;5050979;28;20025;-73
2023/11/30 02:04:22;;;;;;;4.05;3.33;;;3.10;99.90;;;;;;5032498;28;20044;-73
2023/11/30 02:06:48;;;;;;;3.22;2.15;;;3.00;99.90;;;;;;5037246;28;20416;-73
2023/11/30 02:09:14;;;;;;;3.67;2.42;;;3.00;99.90;;;;;;5067548;28;20029;-74
2023/11/30 02:11:40;;;;;;;4.43;2.53;;;3.00;99.90;;;;;;5019356;28;20052;-73
2023/11/30 02:14:06;;;;;;;3.20;2.58;;;3.10;99.90;;;;;;5014881;28;20025;-73
2023/11/30 02:16:32;;;;;;;5.03;2.97;;;3.00;99.90;;;;;;5016270;28;20033;-74
2023/11/30 02:18:59;;;;;;;4.47;1.90;;;3.00;99.90;;;;;;5026328;28;20448;-75
2023/11/30 02:21:24;;;;;;;6.10;3.03;;;3.00;99.90;;;;;;5032976;28;20036;-74
2023/11/30 02:23:50;;;;;;;2.63;2.22;;;3.10;99.90;;;;;;5040497;28;20115;-74
2023/11/30 02:26:17;;;;;;;3.65;2.75;;;3.00;99.90;;;;;;5017418;28;20416;-73
2023/11/30 02:28:43;;;;;;;7.43;3.45;;;3.00;99.90;;;;;;5029672;28;20367;-73
2023/11/30 02:31:10;;;;;;;1.25;1.15;;;3.10;99.90;;;;;;5028651;28;20679;-74
2023/11/30 02:33:35;;;;;;;2.63;2.28;;;3.00;99.90;;;;;;5051216;28;20043;-74
2023/11/30 02:36:01;;;;;;;1.77;1.67;;;3.10;99.90;;;;;;5029851;28;20037;-74
2023/11/30 02:38:27;;;;;;;5.68;3.33;;;3.00;99.90;;;;;;5033120;28;20806;-74
2023/11/30 02:40:53;;;;;;;2.17;1.83;;;3.10;99.90;;;;;;5052185;28;20056;-73
2023/11/30 02:43:19;;;;;;;4.47;2.92;;;3.10;99.90;;;;;;5051550;28;20028;-74
2023/11/30 02:45:45;;;;;;;2.40;2.20;;;3.10;99.90;;;;;;5029816;28;20099;-74
2023/11/30 02:48:10;;;;;;;2.15;1.90;;;3.10;99.90;;;;;;5035932;28;20390;-73
2023/11/30 02:50:36;;;;;;;4.07;3.17;;;3.10;99.90;;;;;;5012746;28;20026;-74
2023/11/30 02:53:02;;;;;;;2.80;2.50;;;3.10;99.90;;;;;;5010759;28;20030;-73
2023/11/30 02:55:28;;;;;;;5.05;2.75;;;3.10;99.90;;;;;;5050588;28;20033;-74
2023/11/30 02:57:53;;;;;;;3.00;2.50;;;3.10;99.90;;;;;;5050613;28;20029;-74
2023/11/30 03:00:19;;;;;;;4.97;3.08;;;3.10;99.90;;;;;;5049073;28;20425;-74
2023/11/30 03:02:45;;;;;;;3.40;1.63;;;3.10;99.90;;;;;;5029642;28;20036;-73
2023/11/30 03:05:11;;;;;;;3.33;2.80;;;3.10;99.90;;;;;;5042476;28;20026;-73
2023/11/30 03:07:37;;;;;;;11.00;3.78;;;3.10;99.90;;;;;;5029146;28;20477;-74
2023/11/30 03:10:03;;;;;;;1.30;1.20;;;3.20;99.90;;;;;;5046015;28;20029;-74
2023/11/30 03:12:28;;;;;;;5.63;3.75;;;3.20;99.90;;;;;;5050468;28;20060;-74
2023/11/30 03:14:54;;;;;;;3.42;2.25;;;3.10;99.90;;;;;;5032750;28;20488;-74
2023/11/30 03:17:20;;;;;;;2.90;2.38;;;3.00;99.90;;;;;;5032024;28;20488;-72
2023/11/30 03:19:46;;;;;;;1.83;1.70;;;3.00;99.90;;;;;;5032483;28;20397;-72
2023/11/30 03:22:12;;;;;;;3.25;2.47;;;3.10;99.90;;;;;;5032660;28;20029;-72
2023/11/30 03:24:38;;;;;;;2.80;2.38;;;3.10;99.90;;;;;;5031336;28;20049;-72
2023/11/30 03:27:03;;;;;;;2.95;2.22;;;3.10;99.90;;;;;;5051836;28;20029;-72
2023/11/30 03:29:29;;;;;;;9.55;3.30;;;3.20;99.90;;;;;;5052480;28;20111;-72
2023/11/30 03:31:55;;;;;;;12.45;2.08;;;3.20;99.90;;;;;;5049567;28;20029;-72
2023/11/30 03:34:20;;;;;;;4.22;2.45;;;3.20;99.90;;;;;;5053170;28;20036;-72
2023/11/30 03:36:46;;;;;;;3.38;2.15;;;3.30;99.90;;;;;;5032547;28;20033;-72
2023/11/30 03:39:12;;;;;;;5.10;1.88;;;3.20;99.90;;;;;;5052853;28;20029;-72
2023/11/30 03:41:38;;;;;;;3.20;1.63;;;3.20;99.90;;;;;;5020621;28;20064;-72
2023/11/30 03:44:04;;;;;;;3.60;2.47;;;3.10;99.90;;;;;;5054110;28;20063;-73
2023/11/30 03:46:29;;;;;;;3.47;2.58;;;3.20;99.90;;;;;;5048067;28;20028;-72
2023/11/30 03:48:55;;;;;;;3.25;2.15;;;3.20;99.90;;;;;;5032289;28;20436;-72
2023/11/30 03:51:21;;;;;;;5.60;2.25;;;3.20;99.90;;;;;;5035775;28;20029;-72
2023/11/30 03:53:47;;;;;;;6.07;2.65;;;3.30;99.90;;;;;;5035515;28;20025;-72
2023/11/30 03:56:13;;;;;;;6.43;2.47;;;3.30;99.90;;;;;;5031145;28;20033;-73
2023/11/30 03:58:39;;;;;;;4.07;2.38;;;3.30;99.90;;;;;;5031665;28;20037;-73
2023/11/30 04:01:06;;;;;;;4.55;3.28;;;3.30;99.90;;;;;;5048735;28;20534;-72
2023/11/30 04:03:32;;;;;;;3.78;1.95;;;3.30;99.90;;;;;;5031297;28;20133;-74
2023/11/30 04:05:58;;;;;;;4.35;2.38;;;3.20;99.90;;;;;;5025742;28;20084;-73
2023/11/30 04:08:24;;;;;;;1.58;1.48;;;3.20;99.90;;;;;;5059749;28;20370;-73
2023/11/30 04:10:50;;;;;;;2.42;2.20;;;3.10;99.90;;;;;;5038314;28;20028;-73
2023/11/30 04:13:16;;;;;;;2.72;2.47;;;3.10;99.90;;;;;;5054018;28;20040;-73
2023/11/30 04:15:42;;;;;;;2.70;2.20;;;3.20;99.90;;;;;;5029504;28;20489;-73
2023/11/30 04:18:08;;;;;;;5.20;2.97;;;3.20;99.90;;;;;;5015672;28;20373;-74
2023/11/30 04:20:34;;;;;;;2.47;1.60;;;3.20;99.90;;;;;;5030333;28;20037;-73
2023/11/30 04:23:00;;;;;;;7.18;2.78;;;3.20;99.90;;;;;;5012127;28;20032;-73
2023/11/30 04:25:26;;;;;;;4.03;2.20;;;3.20;99.90;;;;;;5021007;28;20115;-73
2023/11/30 04:27:52;;;;;;;3.88;3.42;;;3.20;99.90;;;;;;5040660;28;20100;-73
2023/11/30 04:30:18;;;;;;;2.60;2.40;;;3.20;99.90;;;;;;5033089;28;20033;-73
2023/11/30 04:32:43;;;;;;;4.13;2.28;;;3.30;99.90;;;;;;5052834;28;20103;-74
2023/11/30 04:35:09;;;;;;;2.00;1.80;;;3.20;99.90;;;;;;5046353;28;20099;-73
2023/11/30 04:37:35;;;;;;;1.58;1.30;;;3.10;99.90;;;;;;5023694;28;20021;-73
2023/11/30 04:40:01;;;;;;;2.50;1.70;;;3.10;99.90;;;;;;5030052;28;20389;-74
2023/11/30 04:42:27;;;;;;;3.28;1.92;;;3.10;99.90;;;;;;5036119;28;20041;-73
2023/11/30 04:44:53;;;;;;;4.03;2.58;;;3.20;99.90;;;;;;5047244;28;20037;-72
2023/11/30 04:47:19;;;;;;;5.03;3.08;;;3.20;99.90;;;;;;5035276;28;20029;-73
2023/11/30 04:49:45;;;;;;;1.35;1.13;;;3.20;99.90;;;;;;5052038;28;20033;-74
2023/11/30 04:52:10;;;;;;;6.00;2.30;;;3.20;99.90;;;;;;5051934;28;20047;-74
2023/11/30 04:54:36;;;;;;;4.38;2.40;;;3.20;99.90;;;;;;5027118;28;20666;-74
2023/11/30 04:57:02;;;;;;;2.65;1.42;;;3.20;99.90;;;;;;5020998;28;20627;-75
2023/11/30 04:59:28;;;;;;;6.60;2.30;;;3.20;99.90;;;;;;5023276;28;20113;-76
2023/11/30 05:01:54;;;;;;;2.22;2.03;;;3.20;99.90;;;;;;5050096;28;20119;-75
2023/11/30 05:04:20;;;;;;;1.83;1.67;;;3.20;99.90;;;;;;5032245;28;20040;-76
2023/11/30 05:06:46;;;;;;;0.93;0.88;;;3.20;99.90;;;;;;5036585;28;20143;-74
2023/11/30 05:09:12;;;;;;;2.97;1.73;;;3.10;99.90;;;;;;5051945;28;20116;-75
2023/11/30 05:11:38;;;;;;;2.38;1.83;;;3.10;99.90;;;;;;5059494;28;20040;-74
2023/11/30 05:14:03;;;;;;;2.65;1.40;;;3.10;99.90;;;;;;5036413;28;20029;-72
2023/11/30 05:16:29;;;;;;;3.22;2.30;;;3.10;99.90;;;;;;5040235;28;20032;-73
2023/11/30 05:18:55;;;;;;;2.67;1.92;;;3.20;99.90;;;;;;5049938;28;20067;-74
2023/11/30 05:21:21;;;;;;;3.95;2.83;;;3.20;99.90;;;;;;5033946;28;20040;-73
2023/11/30 05:23:47;;;;;;;4.20;2.03;;;3.20;99.90;;;;;;5051278;28;20036;-73
2023/11/30 05:26:13;;;;;;;2.00;1.85;;;3.20;99.90;;;;;;5045257;28;20040;-74
2023/11/30 05:28:38;;;;;;;4.13;2.75;;;3.20;99.90;;;;;;5030167;28;20033;-73
2023/11/30 05:31:04;;;;;;;3.88;2.55;;;3.20;99.90;;;;;;5049824;28;20025;-74
2023/11/30 05:33:31;;;;;;;4.43;3.20;;;3.20;99.90;;;;;;5036896;28;20025;-74
2023/11/30 05:35:57;;;;;;;5.80;3.13;;;3.10;99.90;;;;;;5030415;28;20197;-73
2023/11/30 05:38:23;;;;;;;9.00;4.10;;;3.10;99.90;;;;;;5029515;28;20496;-72
2023/11/30 05:40:49;;;;;;;3.85;3.05;;;3.10;99.90;;;;;;5051017;28;20037;-73
2023/11/30 05:43:15;;;;;;;8.60;4.57;;;3.30;99.90;;;;;;5031210;28;20028;-72
2023/11/30 05:45:43;;;;;;;4.93;2.83;;;3.20;99.90;;;;;;5034905;28;20025;-73
2023/11/30 05:48:09;;;;;;;2.08;1.45;;;3.10;99.90;;;;;;5031364;28;20033;-73
2023/11/30 05:50:35;;;;;;;3.15;1.67;;;2.90;99.90;;;;;;5036878;28;20029;-73
2023/11/30 05:53:01;;;;;;;3.78;1.88;;;2.80;99.90;;;;;;5029808;28;20060;-73
2023/11/30 05:55:27;;;;;;;1.55;1.45;;;2.70;99.90;;;;;;5032747;28;20039;-74
2023/11/30 05:57:53;;;;;;;2.72;2.28;;;2.70;99.90;;;;;;5030136;28;20377;-74
2023/11/30 06:00:20;;;;;;;7.13;2.88;;;2.70;99.90;;;;;;5016209;28;20545;-74
2023/11/30 06:02:46;;;;;;;11.38;3.85;;;2.60;99.90;;;;;;5017262;28;20060;-74
2023/11/30 06:05:11;;;;;;;7.93;3.40;;;2.50;99.90;;;;;;5032637;28;20064;-74
2023/11/30 06:07:38;;;;;;;4.07;2.53;;;2.50;99.90;;;;;;5033302;28;20560;-74
2023/11/30 06:10:05;;;;;;;1.67;1.58;;;2.40;99.90;;;;;;5044309;28;20029;-74
2023/11/30 06:12:31;;;;;;;2.13;1.92;;;2.30;99.90;;;;;;5033291;28;20087;-73
2023/11/30 06:14:57;;;;;;;4.10;3.05;;;2.20;99.90;;;;;;5032715;28;20029;-74
2023/11/30 06:17:23;;;;;;;2.17;2.00;;;2.20;99.90;;;;;;5032665;28;20047;-73
2023/11/30 06:19:48;;;;;;;1.95;1.73;;;2.20;99.90;;;;;;5046007;28;20030;-75
2023/11/30 06:22:14;;;;;;;3.17;2.90;;;2.20;99.90;;;;;;5048648;28;20025;-73
2023/11/30 06:24:40;;;;;;;4.20;2.38;;;2.20;99.90;;;;;;5050421;28;20037;-75
2023/11/30 06:27:07;;;;;;;1.63;1.25;;;2.10;99.90;;;;;;5050592;28;20533;-73
2023/11/30 06:29:32;;;;;;;3.33;1.63;;;2.10;99.90;;;;;;5048226;28;20039;-74
2023/11/30 06:32:00;;;;;;;7.97;3.53;;;2.10;99.90;;;;;;5045339;28;20107;-73
2023/11/30 06:34:28;;;;;;;3.28;1.73;;;2.00;99.90;;;;;;5031803;28;20120;-74
2023/11/30 06:36:54;;;;;;;2.45;1.85;;;1.90;99.90;;;;;;5033029;28;20127;-74
2023/11/30 06:39:20;;;;;;;1.75;1.40;;;1.80;99.90;;;;;;5031650;28;20074;-73
2023/11/30 06:41:49;;;;;;;3.58;2.72;;;1.70;99.90;;;;;;5049823;28;20044;-74
2023/11/30 06:44:15;;;;;;;1.70;1.48;;;1.60;99.90;;;;;;5058470;28;20029;-76
2023/11/30 06:46:42;;;;;;;8.18;2.30;;;1.50;99.90;;;;;;5040211;28;20033;-73
2023/11/30 06:49:11;;;;;;;1.73;1.55;;;1.40;99.90;;;;;;5050141;28;20037;-73
2023/11/30 06:51:36;;;;;;;0.85;0.85;;;1.40;99.90;;;;;;5035960;28;20024;-73
2023/11/30 06:54:03;;;;;;;5.15;2.85;;;1.40;99.90;;;;;;5019836;28;20029;-73
2023/11/30 06:56:29;;;;;;;2.17;1.15;;;1.40;99.90;;;;;;5055948;28;20055;-73
2023/11/30 06:58:54;;;;;;;4.88;1.75;;;1.40;99.90;;;;;;5028613;28;20493;-72
2023/11/30 07:01:25;;;;;;;2.53;1.88;;;1.50;99.90;;;;;;5033867;28;20033;-73
2023/11/30 07:03:51;;;;;;;5.07;2.17;;;1.50;99.90;;;;;;5043453;28;20021;-73
2023/11/30 07:06:17;;;;;;;3.60;1.85;;;1.50;99.90;;;;;;5037052;28;20045;-73
2023/11/30 07:08:43;;;;;;;2.78;2.05;;;1.50;99.90;;;;;;5034144;28;20079;-73
2023/11/30 07:11:12;;;;;;;2.33;2.13;;;1.50;99.90;;;;;;5032789;28;20029;-73
2023/11/30 07:13:38;;;;;;;2.40;1.92;;;1.50;99.90;;;;;;5020268;28;20102;-73
2023/11/30 07:16:05;;;;;;;1.05;0.90;;;1.60;99.90;;;;;;5035980;28;20112;-72
2023/11/30 07:18:30;;;;;;;1.60;1.50;;;1.60;99.90;;;;;;5035912;28;20029;-73
2023/11/30 07:20:56;;;;;;;1.77;1.42;;;1.50;99.90;;;;;;5040407;28;20440;-72
2023/11/30 07:23:22;;;;;;;3.88;1.92;;;1.60;99.90;;;;;;5035289;28;20123;-72
2023/11/30 07:25:48;;;;;;;3.28;2.85;;;1.60;99.90;;;;;;5032699;28;20351;-73
2023/11/30 07:28:14;;;;;;;6.32;4.13;;;1.70;99.90;;;;;;5053365;28;20033;-73
2023/11/30 07:30:43;;;;;;;1.98;1.13;;;1.80;99.90;;;;;;5054416;28;20493;-73
2023/11/30 07:33:09;;;;;;;2.97;2.78;;;1.80;99.90;;;;;;5051452;28;20051;-73
2023/11/30 07:35:38;;;;;;;3.58;3.03;;;1.80;99.90;;;;;;5036515;28;20040;-73
2023/11/30 07:38:05;;;;;;;2.33;1.70;;;1.90;99.90;;;;;;5035031;28;20721;-73
2023/11/30 07:40:34;;;;;;;3.20;2.78;;;2.00;99.90;;;;;;5052565;28;20033;-74
2023/11/30 07:43:00;;;;;;;3.03;2.78;;;2.10;99.90;;;;;;5033487;28;20044;-73
2023/11/30 07:45:29;;;;;;;4.82;2.97;;;2.10;99.90;;;;;;5057234;28;20029;-73
2023/11/30 07:47:56;;;;;;;2.38;1.48;;;2.00;99.90;;;;;;5033742;28;20037;-73
2023/11/30 07:50:22;;;;;;;3.15;2.33;;;2.10;99.90;;;;;;5030414;28;20045;-73
2023/11/30 07:52:48;;;;;;;7.38;2.95;;;2.20;99.90;;;;;;5035362;28;20029;-73
2023/11/30 07:55:14;;;;;;;4.75;1.92;;;2.10;99.90;;;;;;5041952;28;20026;-75
2023/11/30 07:57:40;;;;;;;9.05;2.40;;;2.10;99.90;;;;;;5034143;28;20033;-75
2023/11/30 08:00:08;;;;;;;4.95;3.15;;;2.10;99.90;;;;;;5035134;28;20123;-75
2023/11/30 08:02:34;;;;;;;6.20;3.45;;;2.10;99.90;;;;;;5035576;28;20033;-75
2023/11/30 08:05:00;;;;;;;2.03;1.50;;;2.10;99.90;;;;;;5053614;28;20028;-75
2023/11/30 08:07:26;;;;;;;11.65;2.55;;;2.20;99.90;;;;;;5016286;28;20028;-75
2023/11/30 08:09:52;;;;;;;3.70;2.75;;;2.30;99.90;;;;;;5032108;28;20061;-75
2023/11/30 08:12:18;;;;;;;2.47;2.28;;;2.30;99.90;;;;;;5050354;28;20052;-75
2023/11/30 08:14:44;;;;;;;3.20;1.98;;;2.30;99.90;;;;;;5042904;28;20021;-75
2023/11/30 08:17:10;;;;;;;2.55;1.77;;;2.40;99.90;;;;;;5031148;28;20512;-76
2023/11/30 08:19:36;;;;;;;4.53;3.53;;;2.50;99.90;;;;;;5033740;28;20044;-76
2023/11/30 08:22:02;;;;;;;1.50;1.08;;;2.50;99.90;;;;;;5039227;28;20632;-75
2023/11/30 08:24:28;;;;;;;3.90;2.97;;;2.50;99.90;;;;;;5034213;28;20114;-75
2023/11/30 08:26:54;;;;;;;2.30;2.00;;;2.60;99.90;;;;;;5050575;28;20041;-74
2023/11/30 08:29:20;;;;;;;10.90;3.47;;;2.70;99.90;;;;;;5026526;28;20388;-74
2023/11/30 08:31:46;;;;;;;3.40;2.78;;;2.80;99.90;;;;;;5026805;28;20037;-74
2023/11/30 08:34:11;;;;;;;2.90;2.53;;;2.90;99.90;;;;;;5050231;28;20021;-74
2023/11/30 08:36:37;;;;;;;4.88;2.97;;;3.10;99.90;;;;;;5036816;28;20632;-74
2023/11/30 08:39:03;;;;;;;8.70;2.95;;;3.10;99.90;;;;;;5020374;28;20029;-74
2023/11/30 08:41:30;;;;;;;4.63;2.97;;;3.20;99.90;;;;;;5032625;28;20021;-74
2023/11/30 08:43:56;;;;;;;3.67;3.33;;;3.20;99.90;;;;;;5051024;28;20098;-74
2023/11/30 08:46:22;;;;;;;5.15;4.40;;;3.30;99.90;;;;;;5034511;28;20501;-74
2023/11/30 08:48:48;;;;;;;3.08;2.78;;;3.20;99.90;;;;;;5029523;28;20156;-75
2023/11/30 08:51:14;;;;;;;6.65;3.25;;;3.20;99.90;;;;;;5035578;28;20090;-74
2023/11/30 08:53:40;;;;;;;5.40;3.67;;;3.20;99.90;;;;;;5032951;28;20522;-75
2023/11/30 08:56:07;;;;;;;3.55;2.70;;;3.20;99.90;;;;;;5050740;28;20090;-75
2023/11/30 08:58:32;;;;;;;6.22;4.30;;;3.50;99.90;;;;;;5032394;28;20025;-75
2023/11/30 09:00:58;;;;;;;2.38;1.77;;;3.50;99.90;;;;;;5032347;28;20032;-75
2023/11/30 09:03:24;;;;;;;16.73;4.25;;;3.70;99.90;;;;;;5054087;28;20021;-75
2023/11/30 09:05:50;;;;;;;4.15;3.20;;;3.80;99.90;;;;;;5055870;28;20476;-75
2023/11/30 09:08:16;;;;;;;4.93;3.28;;;3.90;99.90;;;;;;5060309;28;20017;-74
2023/11/30 09:10:42;;;;;;;5.13;2.50;;;3.80;99.90;;;;;;5035292;28;20045;-74
2023/11/30 09:13:42;;;;;;;5.43;2.90;;;4.00;99.90;;;;;;5108103;27;21028;-75
2023/11/30 09:16:10;;;;;;;4.20;2.83;;;4.00;99.90;;;;;;5087101;28;20028;-72
2023/11/30 09:18:35;;;;;;;7.75;2.33;;;4.10;99.90;;;;;;5075793;28;20021;-73
2023/11/30 09:21:01;;;;;;;3.40;2.60;;;4.20;99.90;;;;;;5082716;28;20024;-74
2023/11/30 09:23:29;;;;;;;4.43;3.22;;;4.20;99.90;;;;;;5064030;28;20028;-74
2023/11/30 09:25:55;;;;;;;4.72;2.03;;;4.20;99.90;;;;;;5067568;28;20025;-74
2023/11/30 09:28:21;;;;;;;8.15;3.13;;;4.10;99.90;;;;;;5066990;28;20569;-74
2023/11/30 09:30:47;;;;;;;6.28;4.57;;;4.30;99.90;;;;;;5062887;28;20116;-74
2023/11/30 09:33:13;;;;;;;6.07;3.63;;;4.10;99.90;;;;;;5064848;28;20063;-73
2023/11/30 09:35:39;;;;;;;4.90;2.58;;;4.30;99.90;;;;;;5065447;28;20570;-73
2023/11/30 09:38:05;;;;;;;3.50;2.72;;;4.50;99.90;;;;;;5062625;28;20095;-74
2023/11/30 09:40:31;;;;;;;6.40;3.38;;;4.70;99.90;;;;;;5066707;28;20025;-74
2023/11/30 09:42:57;;;;;;;4.68;3.53;;;4.90;99.90;;;;;;5065957;28;20128;-74
2023/11/30 09:45:24;;;;;;;5.63;3.63;;;4.90;99.90;;;;;;5067582;28;20115;-74
2023/11/30 09:47:50;;;;;;;3.10;2.22;;;4.80;99.90;;;;;;5083503;28;20029;-74
2023/11/30 09:50:15;;;;;;;5.70;2.92;;;5.30;99.90;;;;;;5082365;28;20512;-74
2023/11/30 09:52:42;;;;;;;5.18;1.98;;;5.80;99.90;;;;;;5066474;28;20025;-74
2023/11/30 09:55:11;;;;;;;6.60;3.33;;;6.00;99.90;;;;;;5078295;28;20025;-74
2023/11/30 09:57:37;;;;;;;4.07;2.45;;;6.20;99.90;;;;;;5064089;28;20049;-74
2023/11/30 10:00:06;;;;;;;3.15;2.58;;;7.30;99.90;;;;;;5062334;28;20039;-74
2023/11/30 10:02:32;;;;;;;6.28;2.95;;;7.80;99.90;;;;;;5057905;28;20102;-74
2023/11/30 10:04:58;;;;;;;6.05;3.20;;;9.20;99.90;;;;;;5062098;28;20041;-74
2023/11/30 10:07:24;;;;;;;6.85;3.25;;;10.20;99.90;;;;;;5063469;28;20033;-74
2023/11/30 10:09:49;;;;;;;4.35;2.63;;;11.10;99.90;;;;;;5061451;28;20087;-74
2023/11/30 10:12:19;;;;;;;3.97;2.70;;;10.70;99.90;;;;;;5056632;28;20552;-74
2023/11/30 10:14:46;;;;;;;6.30;3.10;;;11.30;99.90;;;;;;5067193;28;20039;-74
2023/11/30 10:17:11;;;;;;;5.20;2.20;;;10.80;99.90;;;;;;5066419;28;20044;-74
2023/11/30 10:19:38;;;;;;;4.63;2.25;;;10.50;99.90;;;;;;5054945;28;20117;-72
2023/11/30 10:22:04;;;;;;;4.57;3.15;;;9.70;99.90;;;;;;5046024;28;20626;-74
2023/11/30 10:24:30;;;;;;;4.82;2.60;;;9.60;99.90;;;;;;5071186;28;20111;-75
2023/11/30 10:27:01;;;;;;;4.22;2.65;;;8.80;99.90;;;;;;5069018;28;20047;-72
2023/11/30 10:29:30;;;;;;;2.85;2.35;;;9.60;99.90;;;;;;5050322;28;20539;-74
2023/11/30 10:31:59;;;;;;;6.75;2.78;;;9.90;99.90;;;;;;5068189;28;20029;-74
2023/11/30 10:34:32;;;;;;;4.18;3.08;;;11.70;99.90;;;;;;5066609;28;20091;-73
2023/11/30 10:36:59;;;;;;;4.60;2.35;;;13.30;97.00;;;;;;5068083;28;20082;-72
2023/11/30 10:39:30;;;;;;;8.30;2.42;;;12.60;95.00;;;;;;5051137;28;20365;-73
2023/11/30 10:42:01;;;;;;;5.35;2.58;;;12.50;95.40;;;;;;5047557;28;20021;-73
2023/11/30 10:44:29;;;;;;;5.67;2.77;;;12.00;94.50;;;;;;5047634;28;20029;-74
2023/11/30 10:46:57;;;;;;;5.70;2.70;;;11.40;97.40;;;;;;5046453;28;20040;-75
2023/11/30 10:49:25;;;;;;;4.68;2.22;;;10.90;99.10;;;;;;5049555;28;20029;-75
2023/11/30 10:51:59;;;;;;;2.45;1.65;;;9.90;99.90;;;;;;5048630;28;20026;-75
2023/11/30 10:54:57;;;;;;;5.43;2.88;;;8.90;99.90;;;;;;5047978;28;20029;-74
2023/11/30 10:57:23;;;;;;;5.68;2.10;;;8.30;99.90;;;;;;5052244;28;20524;-75
2023/11/30 10:59:57;;;;;;;4.90;2.70;;;7.30;99.90;;;;;;5045354;28;20112;-75
2023/11/30 11:02:23;;;;;;;3.90;1.98;;;6.60;99.90;;;;;;5052024;28;20036;-74
2023/11/30 11:04:51;;;;;;;3.92;2.40;;;6.10;99.90;;;;;;5048925;28;20044;-75
2023/11/30 11:07:17;;;;;;;4.93;1.48;;;5.90;99.90;;;;;;5049538;28;20021;-74
2023/11/30 11:09:50;;;;;;;1.50;1.17;;;6.00;99.90;;;;;;5047942;28;20482;-75
2023/11/30 11:12:24;;;;;;;1.50;1.13;;;5.80;99.90;;;;;;5042761;28;20033;-74
2023/11/30 11:17:26;;;;;;;1.52;1.42;;;6.40;99.90;;;;;;5050133;28;20152;-75
2023/11/30 11:19:52;;;;;;;4.03;2.00;;;6.40;99.90;;;;;;5054852;28;20028;-75
2023/11/30 11:22:31;;;;;;;4.68;2.33;;;6.80;99.90;;;;;;5054067;28;20568;-75
2023/11/30 11:24:59;;;;;;;2.63;1.80;;;7.90;99.90;;;;;;5067679;28;20043;-76
2023/11/30 11:27:32;;;;;;;3.38;1.42;;;8.70;99.90;;;;;;5064452;28;20067;-76
2023/11/30 11:30:08;;;;;;;3.33;1.67;;;7.40;99.90;;;;;;5054967;28;20093;-75
2023/11/30 11:32:39;;;;;;;3.30;2.17;;;7.80;99.90;;;;;;5054331;28;20504;-75
2023/11/30 11:35:07;;;;;;;2.13;1.75;;;7.30;99.90;;;;;;5050579;28;20025;-75
2023/11/30 11:37:33;;;;;;;2.03;1.35;;;7.50;99.90;;;;;;5064681;28;20165;-75
2023/11/30 11:40:01;;;;;;;2.38;1.52;;;7.00;99.90;;;;;;5072405;28;20036;-75
2023/11/30 11:42:27;;;;;;;2.47;1.50;;;7.10;99.90;;;;;;5070974;28;20036;-76
2023/11/30 11:44:53;;;;;;;9.00;2.38;;;7.20;99.90;;;;;;5069289;28;20485;-76
2023/11/30 11:47:21;;;;;;;3.47;2.30;;;7.60;99.90;;;;;;5070863;28;20060;-73
2023/11/30 11:49:47;;;;;;;2.95;1.83;;;7.20;99.90;;;;;;5072319;28;20024;-73
2023/11/30 11:52:23;;;;;;;3.85;1.88;;;7.10;99.90;;;;;;5053204;28;20158;-60
2023/11/30 11:55:03;;;;;;;4.78;1.15;;;7.50;99.90;;;;;;5054106;28;20020;-67
2023/11/30 11:57:40;;;;;;;1.95;1.63;;;7.10;99.90;;;;;;5070974;28;20043;-73
2023/11/30 12:00:20;;;;;;;2.40;1.65;;;7.70;99.90;;;;;;5053896;28;20119;-55
2023/11/30 12:02:47;;;;;;;3.65;2.15;;;7.90;99.90;;;;;;5065416;28;20464;-73
2023/11/30 12:05:26;;;;;;;3.63;2.03;;;8.00;99.90;;;;;;5070544;28;20108;-77
2023/11/30 12:07:56;;;;;;;6.80;2.60;;;8.20;99.90;;;;;;5070635;28;20028;-73
2023/11/30 12:10:25;;;;;;;3.63;1.52;;;8.20;99.90;;;;;;5063728;28;20554;-74
2023/11/30 12:12:51;;;;;;;4.53;2.72;;;8.30;99.90;;;;;;5071043;28;20127;-74
2023/11/30 12:15:17;;;;;;;2.88;1.50;;;7.30;99.90;;;;;;5071444;28;20474;-74
2023/11/30 12:17:43;;;;;;;5.07;1.77;;;7.00;99.90;;;;;;5051366;28;20096;-74
2023/11/30 12:20:09;;;;;;;4.25;2.20;;;7.10;99.90;;;;;;5050755;28;20036;-77
2023/11/30 12:22:34;;;;;;;3.17;2.25;;;7.50;99.90;;;;;;5053268;28;20040;-73
2023/11/30 12:25:00;;;;;;;3.45;1.90;;;7.60;99.90;;;;;;5071549;28;20430;-73
2023/11/30 12:27:26;;;;;;;1.52;1.33;;;7.30;99.90;;;;;;5051841;28;20041;-73
2023/11/30 12:29:52;;;;;;;3.65;1.40;;;7.20;99.90;;;;;;5073003;28;20090;-75
2023/11/30 12:32:17;;;;;;;4.40;2.45;;;6.80;99.90;;;;;;5036700;28;20028;-74
2023/11/30 12:34:43;;;;;;;1.38;1.00;;;6.80;99.90;;;;;;5053498;28;20035;-74
2023/11/30 12:37:09;;;;;;;1.13;1.02;;;6.80;99.90;;;;;;5071065;28;20024;-74
2023/11/30 12:39:35;;;;;;;1.33;0.65;;;7.00;99.90;;;;;;5070043;28;20121;-79
2023/11/30 12:42:01;;;;;;;1.77;1.15;;;7.20;99.90;;;;;;5044819;28;20480;-74
2023/11/30 12:44:27;;;;;;;10.85;1.77;;;7.40;99.90;;;;;;5045948;28;20117;-74
2023/11/30 12:46:53;;;;;;;8.43;1.90;;;7.20;99.90;;;;;;5065289;28;20063;-74
2023/11/30 12:49:19;;;;;;;4.47;1.90;;;6.80;99.90;;;;;;5059540;28;20037;-76
2023/11/30 12:51:44;;;;;;;1.48;1.02;;;6.60;99.90;;;;;;5068609;28;20473;-73
2023/11/30 12:54:10;;;;;;;3.00;1.63;;;6.60;99.90;;;;;;5069153;28;20115;-73